Time;durP1;ratioP1;P1;durP2;ratioP2;P2;SDS_P1;SDS_P2;PMS_P1;PMS_P2;Temp;Humidity;BMP_temperature;BMP_pressure;BME280_temperature;BME280_humidity;BME280_pressure;Samples;Min_cycle;Max_cycle;Signal;HPM_P1;HPM_P2
2023/09/21 00:01:06;;;;;;;2.17;1.13;;;14.60;99.90;;;;;;5023357;28;20214;-62
2023/09/21 00:03:36;;;;;;;2.47;1.17;;;14.70;99.90;;;;;;5022617;28;20410;-62
2023/09/21 00:06:04;;;;;;;2.20;1.17;;;14.70;99.90;;;;;;5017313;28;20938;-62
2023/09/21 00:08:30;;;;;;;3.23;1.30;;;14.70;99.90;;;;;;5031767;28;20543;-62
2023/09/21 00:10:57;;;;;;;3.50;1.40;;;14.70;99.90;;;;;;5020707;28;21140;-62
2023/09/21 00:13:26;;;;;;;3.00;1.50;;;14.70;99.90;;;;;;5031092;28;21024;-62
2023/09/21 00:15:52;;;;;;;1.63;0.80;;;14.70;99.90;;;;;;5029495;28;20455;-62
2023/09/21 00:18:21;;;;;;;2.33;1.30;;;14.80;99.90;;;;;;5032424;28;20417;-62
2023/09/21 00:20:52;;;;;;;2.63;1.30;;;14.80;99.90;;;;;;5019669;28;20822;-62
2023/09/21 00:23:20;;;;;;;2.97;1.63;;;14.80;99.90;;;;;;5031863;28;20551;-62
2023/09/21 00:25:47;;;;;;;1.70;0.93;;;14.80;99.90;;;;;;5020989;28;20418;-62
2023/09/21 00:28:12;;;;;;;2.37;1.20;;;14.80;99.90;;;;;;5031859;28;20417;-62
2023/09/21 00:30:41;;;;;;;2.13;1.43;;;14.90;99.90;;;;;;5021249;28;20503;-62
2023/09/21 00:33:07;;;;;;;2.20;1.10;;;14.90;99.90;;;;;;5034095;28;20228;-62
2023/09/21 00:35:39;;;;;;;4.20;1.30;;;14.90;99.90;;;;;;5023109;28;20421;-62
2023/09/21 00:38:10;;;;;;;2.30;1.03;;;14.80;99.90;;;;;;5031958;28;20469;-62
2023/09/21 00:40:38;;;;;;;2.33;1.27;;;14.80;99.90;;;;;;5019782;28;20550;-62
2023/09/21 00:43:04;;;;;;;3.07;1.17;;;14.80;99.90;;;;;;5028588;28;20432;-62
2023/09/21 00:45:30;;;;;;;3.10;1.43;;;14.90;99.90;;;;;;5019274;28;20433;-63
2023/09/21 00:47:56;;;;;;;4.23;2.03;;;14.80;99.90;;;;;;5027151;28;20428;-63
2023/09/21 00:50:22;;;;;;;3.20;1.00;;;14.90;99.90;;;;;;5023260;28;20236;-62
2023/09/21 00:52:53;;;;;;;14.90;1.63;;;14.90;99.90;;;;;;5026293;28;20264;-62
2023/09/21 00:55:30;;;;;;;5.43;1.93;;;14.90;99.90;;;;;;5023134;28;20962;-62
2023/09/21 00:58:02;;;;;;;4.23;1.53;;;15.00;99.90;;;;;;5026848;28;20558;-62
2023/09/21 01:00:30;;;;;;;2.23;1.37;;;15.00;99.90;;;;;;5025424;28;20433;-62
2023/09/21 01:03:11;;;;;;;2.67;1.37;;;15.00;99.90;;;;;;5026846;28;20796;-62
2023/09/21 01:05:41;;;;;;;3.30;1.30;;;15.00;99.90;;;;;;5018423;28;20421;-62
2023/09/21 01:08:13;;;;;;;2.33;1.50;;;15.10;99.90;;;;;;5028752;28;20932;-62
2023/09/21 01:10:44;;;;;;;2.93;1.67;;;15.20;99.90;;;;;;5024908;28;20433;-62
2023/09/21 01:13:11;;;;;;;1.60;0.93;;;15.30;99.90;;;;;;5030817;28;20429;-62
2023/09/21 01:15:37;;;;;;;2.73;1.40;;;15.30;99.90;;;;;;5019191;28;20445;-63
2023/09/21 01:18:09;;;;;;;2.50;1.10;;;15.40;99.90;;;;;;5031133;28;20469;-63
2023/09/21 01:20:35;;;;;;;3.00;1.17;;;15.40;99.90;;;;;;5019813;28;20178;-62
2023/09/21 01:23:08;;;;;;;4.97;1.43;;;15.50;99.90;;;;;;5031632;28;20432;-63
2023/09/21 01:25:39;;;;;;;2.37;1.37;;;15.50;99.90;;;;;;5021613;28;20214;-62
2023/09/21 01:28:09;;;;;;;2.90;1.53;;;15.50;99.90;;;;;;5031335;28;20436;-62
2023/09/21 01:30:37;;;;;;;2.70;1.37;;;15.60;99.90;;;;;;5018923;28;20425;-63
2023/09/21 01:33:08;;;;;;;2.63;1.30;;;15.60;99.90;;;;;;5027270;28;20486;-62
2023/09/21 01:35:34;;;;;;;3.30;1.40;;;15.50;99.90;;;;;;5017743;28;20433;-63
2023/09/21 01:38:00;;;;;;;3.83;1.43;;;15.60;99.90;;;;;;5027195;28;20551;-62
2023/09/21 01:40:25;;;;;;;3.43;1.80;;;15.60;99.90;;;;;;5020216;28;20989;-62
2023/09/21 01:42:51;;;;;;;4.33;1.37;;;15.60;99.90;;;;;;5026381;28;20186;-62
2023/09/21 01:45:17;;;;;;;1.77;1.10;;;15.60;99.90;;;;;;5021003;28;20178;-63
2023/09/21 01:47:43;;;;;;;2.13;0.90;;;15.60;99.90;;;;;;5025931;28;20183;-62
2023/09/21 01:50:15;;;;;;;2.13;1.20;;;15.60;99.90;;;;;;5022476;28;20471;-63
2023/09/21 01:52:41;;;;;;;3.67;1.40;;;15.70;99.90;;;;;;5026083;28;20459;-63
2023/09/21 01:55:10;;;;;;;2.43;1.23;;;15.70;99.90;;;;;;5024316;28;20433;-63
2023/09/21 01:57:40;;;;;;;2.60;1.40;;;15.70;99.90;;;;;;5025718;28;20511;-63
2023/09/21 02:00:21;;;;;;;2.60;1.43;;;15.70;99.90;;;;;;5029446;28;20425;-63
2023/09/21 02:02:48;;;;;;;1.93;1.30;;;15.70;99.90;;;;;;5030082;28;20413;-62
2023/09/21 02:05:15;;;;;;;9.70;1.80;;;15.80;99.90;;;;;;5023790;28;20480;-63
2023/09/21 02:07:42;;;;;;;2.67;1.60;;;15.80;99.90;;;;;;5030055;28;20424;-62
2023/09/21 02:10:10;;;;;;;2.10;1.33;;;15.70;99.90;;;;;;5029777;28;20429;-63
2023/09/21 02:12:37;;;;;;;3.97;1.70;;;15.70;99.90;;;;;;5032398;28;20424;-62
2023/09/21 02:15:12;;;;;;;3.17;1.63;;;15.70;99.90;;;;;;5025355;28;20430;-62
2023/09/21 02:17:39;;;;;;;2.87;1.27;;;15.70;99.90;;;;;;5033204;28;20472;-63
2023/09/21 02:20:16;;;;;;;1.93;0.80;;;15.70;99.90;;;;;;5024588;28;20541;-62
2023/09/21 02:22:49;;;;;;;4.13;1.53;;;15.70;99.90;;;;;;5033362;28;20765;-62
2023/09/21 02:25:16;;;;;;;2.50;1.20;;;15.70;99.90;;;;;;5025058;28;20458;-62
2023/09/21 02:27:46;;;;;;;1.70;1.10;;;15.90;99.90;;;;;;5033027;28;20827;-63
2023/09/21 02:30:20;;;;;;;3.23;1.60;;;15.90;99.90;;;;;;5022083;28;20440;-63
2023/09/21 02:32:55;;;;;;;3.47;1.10;;;16.00;99.90;;;;;;5028264;28;20420;-62
2023/09/21 02:35:26;;;;;;;2.60;1.30;;;16.00;99.90;;;;;;5022447;28;20421;-63
2023/09/21 02:37:54;;;;;;;3.50;1.40;;;16.00;99.90;;;;;;5028443;28;20494;-62
2023/09/21 02:40:21;;;;;;;2.40;1.30;;;16.00;99.90;;;;;;5022254;28;20958;-62
2023/09/21 02:42:49;;;;;;;2.47;1.27;;;16.10;99.90;;;;;;5028332;28;20423;-62
2023/09/21 02:45:15;;;;;;;2.23;1.10;;;16.00;99.90;;;;;;5023102;28;20460;-62
2023/09/21 02:47:43;;;;;;;2.40;1.43;;;16.00;99.90;;;;;;5027904;28;20904;-63
2023/09/21 02:50:21;;;;;;;5.00;1.67;;;15.90;99.90;;;;;;5024913;28;20425;-62
2023/09/21 02:52:52;;;;;;;5.47;1.63;;;15.90;99.90;;;;;;5028075;28;20452;-63
2023/09/21 02:55:20;;;;;;;2.73;1.33;;;15.90;99.90;;;;;;5026162;28;20437;-62
2023/09/21 02:58:10;;;;;;;2.37;1.03;;;15.80;99.90;;;;;;5027772;28;20876;-63
2023/09/21 03:00:43;;;;;;;3.10;1.70;;;15.80;99.90;;;;;;5025879;28;20422;-63
2023/09/21 03:03:12;;;;;;;2.13;1.17;;;15.80;99.90;;;;;;5031029;28;20954;-63
2023/09/21 03:05:39;;;;;;;2.30;1.40;;;15.70;99.90;;;;;;5020705;28;20774;-63
2023/09/21 03:08:13;;;;;;;2.10;1.23;;;15.70;99.90;;;;;;5030469;28;20924;-63
2023/09/21 03:10:43;;;;;;;2.17;1.17;;;15.70;99.90;;;;;;5026149;28;20429;-62
2023/09/21 03:13:10;;;;;;;2.97;1.33;;;15.60;99.90;;;;;;5032959;28;20421;-63
2023/09/21 03:15:36;;;;;;;2.20;1.10;;;15.60;99.90;;;;;;5021012;28;20424;-62
2023/09/21 03:18:07;;;;;;;2.17;1.30;;;15.60;99.90;;;;;;5032470;28;20503;-63
2023/09/21 03:20:36;;;;;;;3.97;1.80;;;15.60;99.90;;;;;;5021701;28;20978;-63
2023/09/21 03:23:09;;;;;;;3.70;1.40;;;15.60;99.90;;;;;;5033168;28;20413;-63
2023/09/21 03:25:55;;;;;;;3.93;1.33;;;15.60;99.90;;;;;;5020753;28;21063;-63
2023/09/21 03:28:24;;;;;;;2.90;1.30;;;15.70;99.90;;;;;;5031666;28;20428;-62
2023/09/21 03:30:52;;;;;;;2.33;1.30;;;15.70;99.90;;;;;;5018615;28;20468;-63
2023/09/21 03:33:20;;;;;;;1.83;0.90;;;15.70;99.90;;;;;;5029786;28;20804;-62
2023/09/21 03:35:45;;;;;;;1.80;0.90;;;15.70;99.90;;;;;;5019261;28;20458;-63
2023/09/21 03:38:12;;;;;;;3.77;1.70;;;15.60;99.90;;;;;;5029871;28;20500;-62
2023/09/21 03:40:41;;;;;;;3.70;1.70;;;15.70;99.90;;;;;;5021503;28;20228;-63
2023/09/21 03:43:10;;;;;;;2.97;1.27;;;15.70;99.90;;;;;;5029501;28;20425;-63
2023/09/21 03:45:37;;;;;;;2.10;1.40;;;15.60;99.90;;;;;;5021601;28;20428;-63
2023/09/21 03:48:06;;;;;;;1.90;1.40;;;15.70;99.90;;;;;;5028602;28;20429;-63
2023/09/21 03:50:32;;;;;;;4.10;1.77;;;15.70;99.90;;;;;;5024084;28;20432;-63
2023/09/21 03:52:59;;;;;;;2.40;1.40;;;15.70;99.90;;;;;;5027853;28;20755;-63
2023/09/21 03:55:25;;;;;;;4.13;1.70;;;15.70;99.90;;;;;;5025676;28;20913;-62
2023/09/21 03:57:51;;;;;;;4.53;1.90;;;15.70;99.90;;;;;;5026706;28;20467;-63
2023/09/21 04:00:39;;;;;;;4.50;1.97;;;15.60;99.90;;;;;;5026442;28;20692;-63
2023/09/21 04:03:08;;;;;;;2.40;1.13;;;15.70;99.90;;;;;;5029014;28;20535;-62
2023/09/21 04:05:35;;;;;;;2.90;1.17;;;15.70;99.90;;;;;;5018736;28;20425;-63
2023/09/21 04:08:05;;;;;;;3.63;1.53;;;15.60;99.90;;;;;;5028578;28;20429;-63
2023/09/21 04:10:32;;;;;;;1.97;1.03;;;15.60;99.90;;;;;;5026581;28;20433;-63
2023/09/21 04:12:58;;;;;;;2.10;1.40;;;15.60;99.90;;;;;;5030142;28;20429;-63
2023/09/21 04:15:28;;;;;;;3.30;1.77;;;15.60;99.90;;;;;;5026272;28;20893;-63
2023/09/21 04:17:55;;;;;;;2.30;1.20;;;15.50;99.90;;;;;;5030387;28;20571;-63
2023/09/21 04:20:21;;;;;;;5.83;1.70;;;15.60;99.90;;;;;;5021458;28;20441;-63
2023/09/21 04:22:49;;;;;;;6.13;1.93;;;15.60;99.90;;;;;;5030976;28;21278;-63
2023/09/21 04:25:16;;;;;;;4.20;2.13;;;15.50;99.90;;;;;;5021020;28;20906;-63
2023/09/21 04:27:44;;;;;;;2.83;1.30;;;15.60;99.90;;;;;;5026166;28;20854;-62
2023/09/21 04:30:14;;;;;;;5.23;1.83;;;15.60;99.90;;;;;;5020338;28;20438;-63
2023/09/21 04:32:41;;;;;;;3.27;1.57;;;15.60;99.90;;;;;;5026191;28;20941;-63
2023/09/21 04:35:07;;;;;;;3.77;1.83;;;15.60;99.90;;;;;;5020871;28;20434;-63
2023/09/21 04:37:34;;;;;;;2.20;1.10;;;15.60;99.90;;;;;;5029309;28;20480;-63
2023/09/21 04:40:04;;;;;;;3.20;1.97;;;15.50;99.90;;;;;;5023770;28;20465;-63
2023/09/21 04:42:30;;;;;;;3.97;1.77;;;15.60;99.90;;;;;;5025780;28;20440;-63
2023/09/21 04:44:57;;;;;;;2.87;1.53;;;15.60;99.90;;;;;;5023166;28;20761;-63
2023/09/21 04:47:27;;;;;;;5.03;1.50;;;15.50;99.90;;;;;;5024773;28;20427;-63
2023/09/21 04:49:55;;;;;;;6.73;2.20;;;15.60;99.90;;;;;;5023911;28;20910;-63
2023/09/21 04:52:22;;;;;;;7.37;2.97;;;15.60;99.90;;;;;;5025274;28;20487;-63
2023/09/21 04:54:51;;;;;;;4.03;1.40;;;15.60;99.90;;;;;;5025273;28;20786;-63
2023/09/21 04:57:20;;;;;;;4.20;2.00;;;15.60;99.90;;;;;;5025233;28;20465;-63
2023/09/21 04:59:46;;;;;;;2.80;1.97;;;15.60;99.90;;;;;;5025895;28;20424;-63
2023/09/21 05:02:12;;;;;;;3.00;1.87;;;15.60;99.90;;;;;;5025077;28;20431;-63
2023/09/21 05:04:38;;;;;;;2.47;1.40;;;15.60;99.90;;;;;;5023371;28;20183;-63
2023/09/21 05:07:05;;;;;;;2.20;1.10;;;15.60;99.90;;;;;;5023169;28;20426;-62
2023/09/21 05:09:32;;;;;;;2.93;1.53;;;15.60;99.90;;;;;;5024166;28;20197;-63
2023/09/21 05:11:58;;;;;;;6.10;2.10;;;15.60;99.90;;;;;;5026024;28;20429;-63
2023/09/21 05:14:25;;;;;;;4.30;2.00;;;15.60;99.90;;;;;;5026174;28;20472;-63
2023/09/21 05:16:52;;;;;;;4.43;1.57;;;15.60;99.90;;;;;;5024613;28;20464;-63
2023/09/21 05:19:18;;;;;;;3.30;1.43;;;15.60;99.90;;;;;;5028136;28;20436;-63
2023/09/21 05:21:44;;;;;;;4.50;2.20;;;15.60;99.90;;;;;;5023335;28;20444;-63
2023/09/21 05:24:10;;;;;;;2.87;1.87;;;15.60;99.90;;;;;;5026196;28;20457;-63
2023/09/21 05:26:36;;;;;;;3.83;2.27;;;15.60;99.90;;;;;;5018678;28;20236;-63
2023/09/21 05:29:02;;;;;;;6.43;2.10;;;15.60;99.90;;;;;;5019855;28;20194;-63
2023/09/21 05:31:28;;;;;;;3.57;1.97;;;15.60;99.90;;;;;;5017227;28;20182;-63
2023/09/21 05:33:54;;;;;;;6.67;2.50;;;15.60;99.90;;;;;;5028047;28;20433;-63
2023/09/21 05:36:21;;;;;;;5.20;2.30;;;15.60;99.90;;;;;;5016302;28;20514;-64
2023/09/21 05:38:46;;;;;;;7.03;2.30;;;15.70;99.90;;;;;;5026754;28;20429;-63
2023/09/21 05:41:12;;;;;;;3.23;1.83;;;15.70;99.90;;;;;;5018684;28;20414;-64
2023/09/21 05:43:39;;;;;;;3.73;1.57;;;15.80;99.90;;;;;;5027875;28;20241;-64
2023/09/21 05:46:04;;;;;;;2.20;1.63;;;15.70;99.90;;;;;;5017300;28;20179;-64
2023/09/21 05:48:31;;;;;;;5.70;2.43;;;15.80;99.90;;;;;;5026354;28;20447;-64
2023/09/21 05:50:56;;;;;;;6.73;2.00;;;15.90;99.90;;;;;;5019645;28;20175;-63
2023/09/21 05:53:22;;;;;;;5.20;2.57;;;15.80;99.90;;;;;;5028215;28;20548;-64
2023/09/21 05:55:48;;;;;;;5.70;2.53;;;15.80;99.90;;;;;;5021239;28;20183;-64
2023/09/21 05:58:13;;;;;;;2.90;1.57;;;15.90;99.90;;;;;;5027427;28;20218;-64
2023/09/21 06:00:40;;;;;;;5.63;2.10;;;15.90;99.90;;;;;;5022206;28;20182;-64
2023/09/21 06:03:06;;;;;;;4.63;2.30;;;15.90;99.90;;;;;;5027507;28;20238;-64
2023/09/21 06:05:32;;;;;;;2.67;1.60;;;15.90;99.90;;;;;;5018633;28;20458;-64
2023/09/21 06:07:57;;;;;;;3.20;1.70;;;16.00;99.90;;;;;;5029299;28;20511;-63
2023/09/21 06:10:24;;;;;;;4.47;2.40;;;16.00;99.90;;;;;;5025618;28;20194;-64
2023/09/21 06:12:50;;;;;;;4.63;1.70;;;16.00;99.90;;;;;;5030473;28;20603;-64
2023/09/21 06:15:16;;;;;;;2.60;1.60;;;16.00;99.90;;;;;;5025804;28;20440;-64
2023/09/21 06:17:43;;;;;;;2.97;1.70;;;16.10;99.90;;;;;;5029828;28;20499;-64
2023/09/21 06:20:09;;;;;;;4.40;1.70;;;16.20;99.90;;;;;;5020983;28;20521;-64
2023/09/21 06:22:37;;;;;;;4.57;2.10;;;16.30;99.90;;;;;;5029173;28;20413;-64
2023/09/21 06:25:04;;;;;;;3.67;1.83;;;16.40;99.90;;;;;;5020458;28;20836;-64
2023/09/21 06:27:30;;;;;;;4.60;2.03;;;16.40;99.90;;;;;;5023921;28;20449;-64
2023/09/21 06:29:56;;;;;;;2.77;1.80;;;16.50;99.90;;;;;;5020663;28;20461;-63
2023/09/21 06:32:23;;;;;;;2.30;1.47;;;16.60;99.90;;;;;;5022364;28;20471;-64
2023/09/21 06:34:51;;;;;;;7.60;2.30;;;16.70;99.90;;;;;;5018305;28;20183;-64
2023/09/21 06:37:19;;;;;;;3.73;1.97;;;16.80;99.90;;;;;;5027681;28;20483;-64
2023/09/21 06:39:45;;;;;;;4.20;1.90;;;16.90;99.90;;;;;;5023985;28;20732;-64
2023/09/21 06:42:11;;;;;;;3.60;1.77;;;17.00;99.90;;;;;;5021153;28;20425;-64
2023/09/21 06:44:37;;;;;;;3.47;1.50;;;17.10;99.90;;;;;;5024710;28;20206;-64
2023/09/21 06:47:03;;;;;;;3.23;1.43;;;17.20;99.90;;;;;;5025577;28;20189;-63
2023/09/21 06:49:29;;;;;;;2.33;1.47;;;17.30;99.90;;;;;;5027469;28;20190;-63
2023/09/21 06:51:56;;;;;;;16.93;1.97;;;17.50;99.90;;;;;;5025320;28;20551;-63
2023/09/21 06:54:23;;;;;;;2.83;1.43;;;17.70;99.90;;;;;;5028612;28;20429;-63
2023/09/21 06:56:49;;;;;;;3.80;2.37;;;17.90;99.90;;;;;;5026100;28;20473;-63
2023/09/21 06:59:15;;;;;;;4.03;1.80;;;18.10;99.90;;;;;;5028387;28;20982;-63
2023/09/21 07:01:40;;;;;;;4.10;1.23;;;18.30;99.90;;;;;;5027071;28;20205;-64
2023/09/21 07:04:07;;;;;;;3.67;1.63;;;18.60;99.90;;;;;;5029008;28;20544;-64
2023/09/21 07:06:32;;;;;;;2.07;1.07;;;18.70;99.90;;;;;;5021477;28;20182;-64
2023/09/21 07:09:00;;;;;;;3.20;1.23;;;18.70;99.90;;;;;;5030475;28;20766;-64
2023/09/21 07:11:26;;;;;;;2.33;1.17;;;18.70;99.90;;;;;;5027789;28;20187;-64
2023/09/21 07:13:51;;;;;;;2.20;1.60;;;18.70;99.90;;;;;;5030632;28;20437;-64
2023/09/21 07:16:19;;;;;;;4.50;1.47;;;18.70;99.90;;;;;;5022431;28;20197;-64
2023/09/21 07:18:47;;;;;;;1.87;1.20;;;18.70;99.90;;;;;;5029636;28;20514;-65
2023/09/21 07:21:13;;;;;;;2.40;1.47;;;18.70;99.90;;;;;;5022509;28;20424;-64
2023/09/21 07:23:40;;;;;;;1.80;1.10;;;18.60;99.90;;;;;;5036849;28;20509;-64
2023/09/21 07:26:05;;;;;;;2.23;1.30;;;18.60;99.90;;;;;;5017307;28;20407;-64
2023/09/21 07:28:32;;;;;;;1.90;1.23;;;18.70;99.90;;;;;;5023475;28;20800;-64
2023/09/21 07:30:58;;;;;;;2.70;1.20;;;18.80;99.90;;;;;;5018055;28;20175;-64
2023/09/21 07:33:25;;;;;;;2.60;1.27;;;19.00;99.90;;;;;;5022306;28;20497;-64
2023/09/21 07:35:51;;;;;;;2.57;1.30;;;19.00;99.90;;;;;;5019101;28;20716;-64
2023/09/21 07:38:21;;;;;;;6.23;1.60;;;19.00;99.90;;;;;;5029828;28;20465;-64
2023/09/21 07:40:47;;;;;;;3.07;1.23;;;19.10;99.90;;;;;;5022116;28;20445;-64
2023/09/21 07:43:13;;;;;;;1.90;1.20;;;19.30;99.90;;;;;;5030287;28;20448;-64
2023/09/21 07:45:38;;;;;;;2.30;1.00;;;19.50;99.90;;;;;;5021908;28;20179;-64
2023/09/21 07:48:05;;;;;;;5.63;1.50;;;19.50;99.90;;;;;;5028307;28;20190;-64
2023/09/21 07:50:34;;;;;;;2.03;1.10;;;19.60;99.90;;;;;;5023603;28;20183;-64
2023/09/21 07:53:03;;;;;;;2.70;1.13;;;19.60;99.90;;;;;;5027863;28;20420;-64
2023/09/21 07:55:29;;;;;;;5.40;1.67;;;19.70;99.90;;;;;;5022732;28;20960;-64
2023/09/21 07:57:55;;;;;;;4.03;1.47;;;19.70;99.90;;;;;;5026674;28;20496;-64
2023/09/21 08:00:21;;;;;;;2.23;1.20;;;19.80;99.90;;;;;;5024262;28;20513;-64
2023/09/21 08:02:47;;;;;;;3.43;1.60;;;19.80;99.90;;;;;;5030271;28;20182;-64
2023/09/21 08:05:12;;;;;;;2.57;1.20;;;19.90;99.90;;;;;;5023313;28;20422;-64
2023/09/21 08:07:38;;;;;;;1.50;0.90;;;19.90;99.90;;;;;;5024869;28;20206;-64
2023/09/21 08:10:05;;;;;;;2.70;1.27;;;19.90;99.90;;;;;;5025297;28;20182;-64
2023/09/21 08:12:31;;;;;;;2.97;1.37;;;19.90;99.90;;;;;;5026869;28;20475;-64
2023/09/21 08:14:57;;;;;;;3.83;1.30;;;20.10;99.90;;;;;;5023921;28;20430;-64
2023/09/21 08:17:23;;;;;;;2.97;1.43;;;20.20;99.90;;;;;;5024175;28;21117;-64
2023/09/21 08:19:49;;;;;;;2.17;1.13;;;20.30;99.90;;;;;;5022442;28;20433;-65
2023/09/21 08:22:14;;;;;;;2.57;1.33;;;20.50;99.90;;;;;;5025848;28;20518;-64
2023/09/21 08:24:41;;;;;;;1.90;0.97;;;21.00;99.90;;;;;;5022342;28;20205;-64
2023/09/21 08:27:08;;;;;;;2.07;1.10;;;21.20;99.90;;;;;;5026007;28;20190;-64
2023/09/21 08:29:33;;;;;;;2.80;1.60;;;21.30;99.90;;;;;;5023032;28;20975;-64
2023/09/21 08:31:59;;;;;;;2.47;1.17;;;21.00;99.90;;;;;;5018851;28;20421;-64
2023/09/21 08:34:25;;;;;;;2.30;1.23;;;21.10;99.90;;;;;;5024504;28;20266;-65
2023/09/21 08:36:51;;;;;;;3.63;1.30;;;21.10;99.90;;;;;;5017518;28;20251;-64
2023/09/21 08:39:17;;;;;;;1.77;1.13;;;21.30;99.90;;;;;;5025630;28;20242;-64
2023/09/21 08:41:50;;;;;;;3.53;1.87;;;21.20;99.90;;;;;;5017422;28;20421;-65
2023/09/21 08:44:17;;;;;;;2.83;1.90;;;21.30;99.90;;;;;;5018255;28;20422;-64
2023/09/21 08:46:54;;;;;;;2.60;1.67;;;21.40;99.90;;;;;;5018343;28;20438;-64
2023/09/21 08:49:22;;;;;;;3.83;1.40;;;21.40;99.90;;;;;;5024762;28;20433;-64
2023/09/21 08:51:47;;;;;;;2.37;1.13;;;21.70;99.90;;;;;;5019275;28;21134;-62
2023/09/21 08:54:16;;;;;;;3.67;1.67;;;21.80;99.90;;;;;;5024185;28;20524;-63
2023/09/21 08:56:43;;;;;;;4.13;1.37;;;21.90;99.90;;;;;;5020205;28;20251;-62
2023/09/21 08:59:09;;;;;;;2.13;1.23;;;22.10;99.90;;;;;;5024233;28;20798;-62
2023/09/21 09:01:37;;;;;;;2.60;1.10;;;22.20;99.90;;;;;;5022198;28;20417;-62
2023/09/21 09:04:04;;;;;;;6.73;1.57;;;22.40;99.90;;;;;;5025052;28;20432;-62
2023/09/21 09:06:30;;;;;;;1.97;1.13;;;22.50;99.90;;;;;;5017136;28;20420;-62
2023/09/21 09:08:56;;;;;;;3.40;1.57;;;22.60;99.90;;;;;;5026437;28;20436;-62
2023/09/21 09:11:42;;;;;;;3.23;1.23;;;22.90;99.90;;;;;;5023640;28;20217;-63
2023/09/21 09:14:13;;;;;;;3.10;1.40;;;22.80;99.90;;;;;;5024190;28;20436;-62
2023/09/21 09:16:38;;;;;;;2.43;1.00;;;23.10;99.20;;;;;;5025338;28;20463;-62
2023/09/21 09:19:08;;;;;;;1.63;0.80;;;23.30;99.80;;;;;;5025936;28;20420;-62
2023/09/21 09:21:34;;;;;;;2.53;1.30;;;23.70;99.60;;;;;;5026161;28;20174;-62
2023/09/21 09:24:00;;;;;;;2.57;1.10;;;23.60;99.20;;;;;;5027825;28;20417;-63
2023/09/21 09:26:26;;;;;;;6.10;2.07;;;23.90;99.00;;;;;;5021708;28;20177;-62
2023/09/21 09:29:09;;;;;;;3.63;1.20;;;24.10;97.70;;;;;;5025397;28;20433;-62
2023/09/21 09:31:41;;;;;;;2.60;1.30;;;24.50;95.90;;;;;;5014464;28;20185;-62
2023/09/21 09:34:09;;;;;;;2.80;1.10;;;24.90;95.70;;;;;;5024605;28;20424;-63
2023/09/21 09:36:35;;;;;;;1.73;1.00;;;25.00;95.70;;;;;;5014588;28;21173;-62
2023/09/21 09:39:08;;;;;;;3.53;1.33;;;25.00;95.50;;;;;;5019044;28;20433;-62
2023/09/21 09:41:37;;;;;;;1.60;0.80;;;24.80;95.80;;;;;;5016722;28;20431;-62
2023/09/21 09:44:06;;;;;;;2.97;1.30;;;24.80;95.30;;;;;;5024098;28;20189;-62
2023/09/21 09:46:35;;;;;;;1.97;1.00;;;24.60;95.10;;;;;;5017386;28;20177;-62
2023/09/21 09:49:02;;;;;;;1.67;0.80;;;24.50;94.50;;;;;;5025527;28;20455;-62
2023/09/21 09:51:40;;;;;;;2.90;1.10;;;24.50;94.50;;;;;;5017841;28;20429;-62
2023/09/21 09:54:09;;;;;;;1.83;0.80;;;24.50;95.20;;;;;;5023794;28;20432;-62
2023/09/21 09:56:41;;;;;;;1.83;0.90;;;24.20;95.20;;;;;;5018594;28;20984;-62
2023/09/21 09:59:09;;;;;;;1.67;0.83;;;24.00;94.90;;;;;;5023787;28;20432;-62
2023/09/21 10:01:37;;;;;;;6.53;1.40;;;23.80;94.80;;;;;;5021397;28;20405;-62
2023/09/21 10:04:08;;;;;;;1.97;0.90;;;23.80;94.70;;;;;;5025094;28;20421;-62
2023/09/21 10:06:37;;;;;;;1.73;0.93;;;23.70;95.20;;;;;;5018768;28;20416;-62
2023/09/21 10:09:09;;;;;;;2.67;1.13;;;23.80;95.80;;;;;;5027258;28;20447;-62
2023/09/21 10:11:34;;;;;;;2.60;0.97;;;23.70;95.50;;;;;;5023355;28;20427;-62
2023/09/21 10:14:00;;;;;;;1.90;0.90;;;23.70;96.00;;;;;;5024103;28;20428;-62
2023/09/21 10:16:27;;;;;;;2.73;0.97;;;23.60;96.20;;;;;;5015551;28;20190;-62
2023/09/21 10:18:57;;;;;;;2.37;1.00;;;23.70;95.80;;;;;;5021997;28;20190;-62
2023/09/21 10:21:31;;;;;;;5.13;1.73;;;23.70;95.00;;;;;;5034864;28;21247;-62
2023/09/21 10:24:11;;;;;;;3.57;1.00;;;23.80;95.10;;;;;;5032880;28;20566;-62
2023/09/21 10:26:40;;;;;;;1.80;0.90;;;24.00;95.10;;;;;;5025520;28;20439;-62
2023/09/21 10:29:11;;;;;;;2.10;0.90;;;24.20;94.40;;;;;;5029238;28;20921;-62
2023/09/21 10:31:39;;;;;;;1.97;1.07;;;24.40;94.70;;;;;;5016523;28;20559;-62
2023/09/21 10:34:07;;;;;;;2.27;0.90;;;24.30;94.90;;;;;;5023931;28;20450;-63
2023/09/21 10:36:37;;;;;;;2.37;1.10;;;24.40;94.30;;;;;;5027989;28;20877;-63
2023/09/21 10:39:11;;;;;;;3.40;1.17;;;24.40;93.80;;;;;;5025430;28;20436;-63
2023/09/21 10:41:45;;;;;;;1.67;0.80;;;24.60;93.60;;;;;;5029187;28;20441;-63
2023/09/21 10:44:12;;;;;;;1.73;0.80;;;24.60;93.60;;;;;;5022826;28;20423;-63
2023/09/21 10:46:41;;;;;;;2.17;1.10;;;24.50;92.70;;;;;;5025874;28;20424;-63
2023/09/21 10:49:06;;;;;;;1.50;0.60;;;24.70;92.20;;;;;;5029173;28;20486;-63
2023/09/21 10:51:39;;;;;;;1.90;1.03;;;24.40;93.30;;;;;;5022487;28;20463;-63
2023/09/21 10:54:06;;;;;;;2.43;0.97;;;24.20;93.30;;;;;;5029429;28;20182;-63
2023/09/21 10:56:33;;;;;;;2.47;1.20;;;24.20;93.90;;;;;;5023633;28;20452;-63
2023/09/21 10:58:59;;;;;;;1.83;1.10;;;24.30;93.00;;;;;;5030101;28;20802;-64
2023/09/21 11:01:25;;;;;;;2.03;0.80;;;24.30;93.70;;;;;;5025869;28;20413;-63
2023/09/21 11:03:51;;;;;;;2.40;1.10;;;24.40;93.10;;;;;;5031307;28;20988;-63
2023/09/21 11:06:17;;;;;;;3.00;0.97;;;24.60;92.30;;;;;;5018560;28;20210;-63
2023/09/21 11:08:47;;;;;;;4.90;0.97;;;24.50;92.70;;;;;;5031136;28;20411;-63
2023/09/21 11:11:16;;;;;;;3.80;1.13;;;24.40;93.50;;;;;;5031147;28;20408;-63
2023/09/21 11:13:42;;;;;;;3.43;0.83;;;24.40;93.80;;;;;;5031279;28;20508;-63
2023/09/21 11:16:14;;;;;;;1.50;0.80;;;24.30;93.50;;;;;;5022417;28;20417;-63
2023/09/21 11:18:40;;;;;;;4.73;1.80;;;24.20;93.20;;;;;;5023391;28;20422;-63
2023/09/21 11:21:08;;;;;;;3.10;1.20;;;24.20;92.50;;;;;;5025800;28;20503;-63
2023/09/21 11:23:35;;;;;;;2.20;1.27;;;24.20;92.40;;;;;;5031826;28;20420;-63
2023/09/21 11:26:01;;;;;;;4.60;1.37;;;24.10;92.60;;;;;;5017708;28;20424;-63
2023/09/21 11:28:27;;;;;;;2.27;1.03;;;24.10;92.80;;;;;;5029821;28;20447;-63
2023/09/21 11:30:56;;;;;;;2.37;1.33;;;24.20;93.50;;;;;;5016764;28;20448;-63
2023/09/21 11:33:22;;;;;;;1.80;0.80;;;24.20;93.30;;;;;;5030243;28;20949;-63
2023/09/21 11:35:48;;;;;;;4.27;1.20;;;24.20;92.20;;;;;;5019298;28;20433;-63
2023/09/21 11:38:16;;;;;;;2.93;1.20;;;24.30;93.30;;;;;;5029098;28;20464;-63
2023/09/21 11:40:42;;;;;;;1.83;0.90;;;24.60;92.00;;;;;;5023155;28;20173;-63
2023/09/21 11:43:16;;;;;;;2.37;1.00;;;24.60;92.60;;;;;;5025318;28;20435;-63
2023/09/21 11:45:48;;;;;;;2.63;0.80;;;25.10;91.90;;;;;;5020109;28;20172;-63
2023/09/21 11:48:15;;;;;;;2.63;1.07;;;25.10;92.00;;;;;;5029428;28;20432;-63
2023/09/21 11:50:44;;;;;;;1.90;0.80;;;25.40;91.00;;;;;;5023419;28;20417;-63
2023/09/21 11:53:10;;;;;;;3.10;1.30;;;25.40;90.50;;;;;;5028820;28;20421;-63
2023/09/21 11:55:40;;;;;;;2.50;1.03;;;25.40;91.50;;;;;;5023289;28;20423;-63
2023/09/21 11:58:09;;;;;;;2.00;1.00;;;25.30;91.70;;;;;;5029906;28;20208;-63
2023/09/21 12:00:45;;;;;;;1.90;0.90;;;25.50;92.00;;;;;;5024731;28;20487;-63
2023/09/21 12:03:16;;;;;;;2.30;1.00;;;25.80;91.10;;;;;;5029640;28;20416;-63
2023/09/21 12:05:45;;;;;;;1.70;1.00;;;25.80;90.60;;;;;;5026944;28;20182;-63
2023/09/21 12:08:16;;;;;;;1.90;0.80;;;25.90;89.90;;;;;;5029763;28;20420;-63
2023/09/21 12:10:45;;;;;;;2.57;0.90;;;25.80;90.10;;;;;;5025109;28;20443;-63
2023/09/21 12:13:11;;;;;;;2.87;1.00;;;25.50;91.20;;;;;;5031713;28;20451;-63
2023/09/21 12:15:38;;;;;;;3.13;0.90;;;25.50;90.40;;;;;;5021107;28;20439;-63
2023/09/21 12:18:07;;;;;;;4.57;1.07;;;25.50;90.80;;;;;;5031262;28;20547;-63
2023/09/21 12:20:33;;;;;;;1.60;0.83;;;25.30;92.10;;;;;;5020615;28;20448;-63
2023/09/21 12:22:59;;;;;;;2.43;0.90;;;25.50;91.50;;;;;;5031786;28;20496;-63
2023/09/21 12:25:25;;;;;;;3.80;0.80;;;25.70;90.80;;;;;;5024965;28;20651;-63
2023/09/21 12:27:51;;;;;;;3.13;1.60;;;25.90;91.50;;;;;;5031434;28;20240;-63
2023/09/21 12:30:17;;;;;;;2.53;1.10;;;25.90;91.20;;;;;;5018442;28;20434;-63
2023/09/21 12:32:43;;;;;;;2.93;1.40;;;25.80;90.70;;;;;;5025601;28;20170;-63
2023/09/21 12:35:10;;;;;;;1.80;0.80;;;26.00;90.10;;;;;;5026190;28;20559;-63
2023/09/21 12:37:37;;;;;;;2.47;1.20;;;26.00;90.60;;;;;;5029094;28;20206;-63
2023/09/21 12:40:11;;;;;;;1.80;1.00;;;25.90;91.30;;;;;;5021557;28;20573;-63
2023/09/21 12:42:43;;;;;;;2.90;1.10;;;26.00;91.30;;;;;;5029079;28;20170;-63
2023/09/21 12:45:14;;;;;;;1.70;1.00;;;25.80;90.70;;;;;;5021194;28;20596;-63
2023/09/21 12:47:44;;;;;;;3.00;1.30;;;25.70;91.10;;;;;;5029990;28;20182;-63
2023/09/21 12:50:12;;;;;;;2.03;1.27;;;25.60;90.70;;;;;;5022165;28;20543;-63
2023/09/21 12:52:44;;;;;;;2.53;1.13;;;25.60;90.30;;;;;;5023600;28;20200;-63